sensor_id;sensor_type;location;lat;lon;timestamp;P1;durP1;ratioP1;P2;durP2;ratioP2
45650;SDS011;31365;48.858;8.530;2023-04-15T00:00:34;4.27;;;2.20;;
45650;SDS011;31365;48.858;8.530;2023-04-15T00:03:03;3.83;;;1.70;;
45650;SDS011;31365;48.858;8.530;2023-04-15T00:05:33;2.93;;;1.87;;
45650;SDS011;31365;48.858;8.530;2023-04-15T00:08:01;2.87;;;1.50;;
45650;SDS011;31365;48.858;8.530;2023-04-15T00:10:29;4.73;;;1.43;;
45650;SDS011;31365;48.858;8.530;2023-04-15T00:12:57;2.03;;;1.50;;
45650;SDS011;31365;48.858;8.530;2023-04-15T00:15:25;5.33;;;2.70;;
45650;SDS011;31365;48.858;8.530;2023-04-15T00:17:55;6.13;;;2.37;;
45650;SDS011;31365;48.858;8.530;2023-04-15T00:20:23;4.40;;;2.60;;
45650;SDS011;31365;48.858;8.530;2023-04-15T00:22:51;2.43;;;2.20;;
45650;SDS011;31365;48.858;8.530;2023-04-15T00:25:20;7.13;;;4.20;;
45650;SDS011;31365;48.858;8.530;2023-04-15T00:27:49;5.23;;;3.17;;
45650;SDS011;31365;48.858;8.530;2023-04-15T00:30:17;7.30;;;3.70;;
45650;SDS011;31365;48.858;8.530;2023-04-15T00:32:46;6.10;;;2.70;;
45650;SDS011;31365;48.858;8.530;2023-04-15T00:35:20;3.83;;;2.63;;
45650;SDS011;31365;48.858;8.530;2023-04-15T00:37:49;5.27;;;2.83;;
45650;SDS011;31365;48.858;8.530;2023-04-15T00:40:18;4.10;;;2.33;;
45650;SDS011;31365;48.858;8.530;2023-04-15T00:42:50;4.00;;;2.00;;
45650;SDS011;31365;48.858;8.530;2023-04-15T00:45:18;3.93;;;2.20;;
45650;SDS011;31365;48.858;8.530;2023-04-15T00:47:47;4.20;;;2.30;;
45650;SDS011;31365;48.858;8.530;2023-04-15T00:50:17;3.53;;;2.00;;
45650;SDS011;31365;48.858;8.530;2023-04-15T00:52:46;5.53;;;1.77;;
45650;SDS011;31365;48.858;8.530;2023-04-15T00:55:15;3.03;;;1.73;;
45650;SDS011;31365;48.858;8.530;2023-04-15T00:57:43;2.90;;;1.60;;
45650;SDS011;31365;48.858;8.530;2023-04-15T01:00:11;3.23;;;1.90;;
45650;SDS011;31365;48.858;8.530;2023-04-15T01:02:40;3.57;;;1.93;;
45650;SDS011;31365;48.858;8.530;2023-04-15T01:05:08;3.50;;;1.90;;
45650;SDS011;31365;48.858;8.530;2023-04-15T01:07:38;3.30;;;1.70;;
45650;SDS011;31365;48.858;8.530;2023-04-15T01:10:08;2.77;;;1.60;;
45650;SDS011;31365;48.858;8.530;2023-04-15T01:12:37;3.50;;;1.57;;
45650;SDS011;31365;48.858;8.530;2023-04-15T01:15:06;3.20;;;2.00;;
45650;SDS011;31365;48.858;8.530;2023-04-15T01:17:36;3.30;;;1.47;;
45650;SDS011;31365;48.858;8.530;2023-04-15T01:20:06;3.80;;;1.53;;
45650;SDS011;31365;48.858;8.530;2023-04-15T01:22:37;2.70;;;1.57;;
45650;SDS011;31365;48.858;8.530;2023-04-15T01:25:10;1.60;;;1.13;;
45650;SDS011;31365;48.858;8.530;2023-04-15T01:27:45;2.90;;;1.47;;
45650;SDS011;31365;48.858;8.530;2023-04-15T01:30:14;3.53;;;1.27;;
45650;SDS011;31365;48.858;8.530;2023-04-15T01:32:42;2.70;;;1.63;;
45650;SDS011;31365;48.858;8.530;2023-04-15T01:35:11;1.90;;;1.27;;
45650;SDS011;31365;48.858;8.530;2023-04-15T01:37:39;4.47;;;1.37;;
45650;SDS011;31365;48.858;8.530;2023-04-15T01:40:08;5.67;;;1.40;;
45650;SDS011;31365;48.858;8.530;2023-04-15T01:42:36;2.27;;;1.40;;
45650;SDS011;31365;48.858;8.530;2023-04-15T01:45:06;2.37;;;1.40;;
45650;SDS011;31365;48.858;8.530;2023-04-15T01:47:36;3.00;;;1.53;;
45650;SDS011;31365;48.858;8.530;2023-04-15T01:50:05;3.20;;;1.57;;
45650;SDS011;31365;48.858;8.530;2023-04-15T01:52:34;3.07;;;1.40;;
45650;SDS011;31365;48.858;8.530;2023-04-15T01:55:03;3.13;;;1.13;;
45650;SDS011;31365;48.858;8.530;2023-04-15T01:57:33;2.97;;;1.60;;
45650;SDS011;31365;48.858;8.530;2023-04-15T02:00:02;4.57;;;1.27;;
45650;SDS011;31365;48.858;8.530;2023-04-15T02:02:39;2.23;;;1.30;;
45650;SDS011;31365;48.858;8.530;2023-04-15T02:05:08;4.33;;;1.50;;
45650;SDS011;31365;48.858;8.530;2023-04-15T02:07:36;4.10;;;2.00;;
45650;SDS011;31365;48.858;8.530;2023-04-15T02:10:05;2.83;;;1.63;;
45650;SDS011;31365;48.858;8.530;2023-04-15T02:12:35;3.20;;;1.60;;
45650;SDS011;31365;48.858;8.530;2023-04-15T02:15:04;3.03;;;1.37;;
45650;SDS011;31365;48.858;8.530;2023-04-15T02:17:34;1.83;;;1.60;;
45650;SDS011;31365;48.858;8.530;2023-04-15T02:20:04;3.00;;;1.80;;
45650;SDS011;31365;48.858;8.530;2023-04-15T02:22:36;3.43;;;1.63;;
45650;SDS011;31365;48.858;8.530;2023-04-15T02:25:06;3.73;;;1.73;;
45650;SDS011;31365;48.858;8.530;2023-04-15T02:27:36;2.90;;;1.37;;
45650;SDS011;31365;48.858;8.530;2023-04-15T02:30:04;4.10;;;1.57;;
45650;SDS011;31365;48.858;8.530;2023-04-15T02:32:34;3.00;;;1.40;;
45650;SDS011;31365;48.858;8.530;2023-04-15T02:35:06;1.37;;;1.10;;
45650;SDS011;31365;48.858;8.530;2023-04-15T02:37:36;2.10;;;1.10;;
45650;SDS011;31365;48.858;8.530;2023-04-15T02:40:10;2.33;;;1.33;;
45650;SDS011;31365;48.858;8.530;2023-04-15T02:42:39;3.50;;;1.77;;
45650;SDS011;31365;48.858;8.530;2023-04-15T02:45:11;2.47;;;1.37;;
45650;SDS011;31365;48.858;8.530;2023-04-15T02:47:40;4.10;;;1.70;;
45650;SDS011;31365;48.858;8.530;2023-04-15T02:50:11;2.03;;;1.33;;
45650;SDS011;31365;48.858;8.530;2023-04-15T02:52:41;2.67;;;1.50;;
45650;SDS011;31365;48.858;8.530;2023-04-15T02:55:10;1.80;;;1.57;;
45650;SDS011;31365;48.858;8.530;2023-04-15T02:57:39;1.70;;;1.30;;
45650;SDS011;31365;48.858;8.530;2023-04-15T03:00:09;1.50;;;1.23;;
45650;SDS011;31365;48.858;8.530;2023-04-15T03:02:41;2.57;;;1.30;;
45650;SDS011;31365;48.858;8.530;2023-04-15T03:05:14;1.93;;;1.00;;
45650;SDS011;31365;48.858;8.530;2023-04-15T03:07:47;2.63;;;1.20;;
45650;SDS011;31365;48.858;8.530;2023-04-15T03:10:16;3.40;;;1.33;;
45650;SDS011;31365;48.858;8.530;2023-04-15T03:12:45;2.17;;;1.33;;
45650;SDS011;31365;48.858;8.530;2023-04-15T03:15:19;2.30;;;1.47;;
45650;SDS011;31365;48.858;8.530;2023-04-15T03:17:50;1.87;;;1.17;;
45650;SDS011;31365;48.858;8.530;2023-04-15T03:20:20;4.43;;;1.43;;
45650;SDS011;31365;48.858;8.530;2023-04-15T03:22:49;5.10;;;1.40;;
45650;SDS011;31365;48.858;8.530;2023-04-15T03:25:19;1.87;;;1.00;;
45650;SDS011;31365;48.858;8.530;2023-04-15T03:27:47;5.87;;;1.50;;
45650;SDS011;31365;48.858;8.530;2023-04-15T03:30:16;1.97;;;1.20;;
45650;SDS011;31365;48.858;8.530;2023-04-15T03:32:44;1.93;;;1.00;;
45650;SDS011;31365;48.858;8.530;2023-04-15T03:35:13;2.27;;;1.30;;
45650;SDS011;31365;48.858;8.530;2023-04-15T03:37:42;3.07;;;1.60;;
45650;SDS011;31365;48.858;8.530;2023-04-15T03:40:11;2.17;;;1.10;;
45650;SDS011;31365;48.858;8.530;2023-04-15T03:42:39;3.67;;;1.30;;
45650;SDS011;31365;48.858;8.530;2023-04-15T03:45:08;2.50;;;1.17;;
45650;SDS011;31365;48.858;8.530;2023-04-15T03:47:37;4.13;;;1.23;;
45650;SDS011;31365;48.858;8.530;2023-04-15T03:50:06;2.27;;;1.20;;
45650;SDS011;31365;48.858;8.530;2023-04-15T03:52:34;3.57;;;1.10;;
45650;SDS011;31365;48.858;8.530;2023-04-15T03:55:04;1.73;;;1.07;;
45650;SDS011;31365;48.858;8.530;2023-04-15T03:57:34;2.23;;;1.13;;
45650;SDS011;31365;48.858;8.530;2023-04-15T04:00:04;3.50;;;1.50;;
45650;SDS011;31365;48.858;8.530;2023-04-15T04:02:38;3.93;;;1.70;;
45650;SDS011;31365;48.858;8.530;2023-04-15T04:05:07;2.27;;;1.10;;
45650;SDS011;31365;48.858;8.530;2023-04-15T04:07:35;2.23;;;1.07;;
45650;SDS011;31365;48.858;8.530;2023-04-15T04:10:05;2.27;;;0.87;;
45650;SDS011;31365;48.858;8.530;2023-04-15T04:12:34;4.23;;;1.53;;
45650;SDS011;31365;48.858;8.530;2023-04-15T04:15:03;3.80;;;1.30;;
45650;SDS011;31365;48.858;8.530;2023-04-15T04:17:32;2.97;;;1.20;;
45650;SDS011;31365;48.858;8.530;2023-04-15T04:20:01;3.30;;;1.30;;
45650;SDS011;31365;48.858;8.530;2023-04-15T04:22:29;4.50;;;1.10;;
45650;SDS011;31365;48.858;8.530;2023-04-15T04:24:57;4.43;;;1.60;;
45650;SDS011;31365;48.858;8.530;2023-04-15T04:27:29;2.20;;;1.30;;
45650;SDS011;31365;48.858;8.530;2023-04-15T04:29:57;2.60;;;1.40;;
45650;SDS011;31365;48.858;8.530;2023-04-15T04:32:25;2.17;;;1.50;;
45650;SDS011;31365;48.858;8.530;2023-04-15T04:34:54;2.23;;;1.50;;
45650;SDS011;31365;48.858;8.530;2023-04-15T04:37:22;3.40;;;1.43;;
45650;SDS011;31365;48.858;8.530;2023-04-15T04:39:51;6.37;;;2.30;;
45650;SDS011;31365;48.858;8.530;2023-04-15T04:42:19;3.03;;;1.50;;
45650;SDS011;31365;48.858;8.530;2023-04-15T04:44:48;1.07;;;0.97;;
45650;SDS011;31365;48.858;8.530;2023-04-15T04:47:16;2.37;;;1.40;;
45650;SDS011;31365;48.858;8.530;2023-04-15T04:49:44;2.70;;;1.30;;
45650;SDS011;31365;48.858;8.530;2023-04-15T04:52:12;2.70;;;1.20;;
45650;SDS011;31365;48.858;8.530;2023-04-15T04:54:40;2.93;;;1.40;;
45650;SDS011;31365;48.858;8.530;2023-04-15T04:57:09;2.93;;;2.30;;
45650;SDS011;31365;48.858;8.530;2023-04-15T04:59:39;2.73;;;1.60;;
45650;SDS011;31365;48.858;8.530;2023-04-15T05:02:09;3.73;;;1.60;;
45650;SDS011;31365;48.858;8.530;2023-04-15T05:04:37;4.10;;;1.30;;
45650;SDS011;31365;48.858;8.530;2023-04-15T05:07:06;4.40;;;1.80;;
45650;SDS011;31365;48.858;8.530;2023-04-15T05:09:35;4.20;;;2.07;;
45650;SDS011;31365;48.858;8.530;2023-04-15T05:12:03;3.77;;;2.00;;
45650;SDS011;31365;48.858;8.530;2023-04-15T05:14:31;5.80;;;2.30;;
45650;SDS011;31365;48.858;8.530;2023-04-15T05:17:00;3.67;;;1.80;;
45650;SDS011;31365;48.858;8.530;2023-04-15T05:19:30;2.33;;;1.43;;
45650;SDS011;31365;48.858;8.530;2023-04-15T05:21:58;2.90;;;1.50;;
45650;SDS011;31365;48.858;8.530;2023-04-15T05:24:26;2.40;;;1.30;;
45650;SDS011;31365;48.858;8.530;2023-04-15T05:26:55;1.87;;;1.60;;
45650;SDS011;31365;48.858;8.530;2023-04-15T05:29:24;2.93;;;1.70;;
45650;SDS011;31365;48.858;8.530;2023-04-15T05:31:52;5.13;;;1.67;;
45650;SDS011;31365;48.858;8.530;2023-04-15T05:34:21;2.43;;;1.63;;
45650;SDS011;31365;48.858;8.530;2023-04-15T05:36:50;4.20;;;1.83;;
45650;SDS011;31365;48.858;8.530;2023-04-15T05:39:19;4.07;;;2.07;;
45650;SDS011;31365;48.858;8.530;2023-04-15T05:41:47;3.20;;;1.70;;
45650;SDS011;31365;48.858;8.530;2023-04-15T05:44:15;4.87;;;2.10;;
45650;SDS011;31365;48.858;8.530;2023-04-15T05:46:43;3.27;;;1.93;;
45650;SDS011;31365;48.858;8.530;2023-04-15T05:49:12;2.93;;;1.77;;
45650;SDS011;31365;48.858;8.530;2023-04-15T05:51:40;2.40;;;1.30;;
45650;SDS011;31365;48.858;8.530;2023-04-15T05:54:09;5.27;;;1.80;;
45650;SDS011;31365;48.858;8.530;2023-04-15T05:56:37;1.53;;;1.10;;
45650;SDS011;31365;48.858;8.530;2023-04-15T05:59:06;2.37;;;1.67;;
45650;SDS011;31365;48.858;8.530;2023-04-15T06:01:34;3.23;;;1.60;;
45650;SDS011;31365;48.858;8.530;2023-04-15T06:04:02;3.30;;;2.27;;
45650;SDS011;31365;48.858;8.530;2023-04-15T06:06:31;2.67;;;1.80;;
45650;SDS011;31365;48.858;8.530;2023-04-15T06:09:00;5.90;;;2.10;;
45650;SDS011;31365;48.858;8.530;2023-04-15T06:11:30;2.97;;;1.70;;
45650;SDS011;31365;48.858;8.530;2023-04-15T06:13:58;2.73;;;1.47;;
45650;SDS011;31365;48.858;8.530;2023-04-15T06:16:27;3.03;;;1.37;;
45650;SDS011;31365;48.858;8.530;2023-04-15T06:18:55;3.00;;;1.77;;
45650;SDS011;31365;48.858;8.530;2023-04-15T06:21:23;2.67;;;2.20;;
45650;SDS011;31365;48.858;8.530;2023-04-15T06:23:52;2.63;;;1.70;;
45650;SDS011;31365;48.858;8.530;2023-04-15T06:26:22;4.77;;;1.80;;
45650;SDS011;31365;48.858;8.530;2023-04-15T06:28:51;4.50;;;1.83;;
45650;SDS011;31365;48.858;8.530;2023-04-15T06:31:20;2.17;;;1.43;;
45650;SDS011;31365;48.858;8.530;2023-04-15T06:33:48;4.43;;;1.70;;
45650;SDS011;31365;48.858;8.530;2023-04-15T06:36:17;2.40;;;1.90;;
45650;SDS011;31365;48.858;8.530;2023-04-15T06:38:46;2.10;;;1.90;;
45650;SDS011;31365;48.858;8.530;2023-04-15T06:41:15;3.10;;;1.70;;
45650;SDS011;31365;48.858;8.530;2023-04-15T06:43:44;3.67;;;1.70;;
45650;SDS011;31365;48.858;8.530;2023-04-15T06:46:13;5.60;;;1.60;;
45650;SDS011;31365;48.858;8.530;2023-04-15T06:48:42;3.87;;;1.60;;
45650;SDS011;31365;48.858;8.530;2023-04-15T06:51:10;2.30;;;1.53;;
45650;SDS011;31365;48.858;8.530;2023-04-15T06:53:38;2.87;;;1.67;;
45650;SDS011;31365;48.858;8.530;2023-04-15T06:56:09;1.93;;;1.30;;
45650;SDS011;31365;48.858;8.530;2023-04-15T06:58:37;2.97;;;1.60;;
45650;SDS011;31365;48.858;8.530;2023-04-15T07:01:05;4.37;;;1.80;;
45650;SDS011;31365;48.858;8.530;2023-04-15T07:03:34;3.60;;;1.40;;
45650;SDS011;31365;48.858;8.530;2023-04-15T07:06:03;5.17;;;1.63;;
45650;SDS011;31365;48.858;8.530;2023-04-15T07:08:32;4.50;;;1.83;;
45650;SDS011;31365;48.858;8.530;2023-04-15T07:11:00;3.10;;;1.40;;
45650;SDS011;31365;48.858;8.530;2023-04-15T07:13:29;3.63;;;1.83;;
45650;SDS011;31365;48.858;8.530;2023-04-15T07:15:59;3.03;;;1.33;;
45650;SDS011;31365;48.858;8.530;2023-04-15T07:18:27;4.37;;;1.60;;
45650;SDS011;31365;48.858;8.530;2023-04-15T07:20:56;5.20;;;1.53;;
45650;SDS011;31365;48.858;8.530;2023-04-15T07:23:24;2.80;;;1.70;;
45650;SDS011;31365;48.858;8.530;2023-04-15T07:25:52;2.60;;;2.23;;
45650;SDS011;31365;48.858;8.530;2023-04-15T07:28:20;2.67;;;1.73;;
45650;SDS011;31365;48.858;8.530;2023-04-15T07:30:49;2.90;;;1.80;;
45650;SDS011;31365;48.858;8.530;2023-04-15T07:33:17;3.10;;;1.60;;
45650;SDS011;31365;48.858;8.530;2023-04-15T07:35:46;3.63;;;1.50;;
45650;SDS011;31365;48.858;8.530;2023-04-15T07:38:15;2.47;;;1.40;;
45650;SDS011;31365;48.858;8.530;2023-04-15T07:40:45;5.67;;;1.50;;
45650;SDS011;31365;48.858;8.530;2023-04-15T07:43:13;2.97;;;1.53;;
45650;SDS011;31365;48.858;8.530;2023-04-15T07:45:41;1.70;;;1.40;;
45650;SDS011;31365;48.858;8.530;2023-04-15T07:48:10;4.97;;;2.13;;
45650;SDS011;31365;48.858;8.530;2023-04-15T07:50:38;5.77;;;2.50;;
45650;SDS011;31365;48.858;8.530;2023-04-15T07:53:06;2.40;;;1.53;;
45650;SDS011;31365;48.858;8.530;2023-04-15T07:55:36;3.97;;;1.50;;
45650;SDS011;31365;48.858;8.530;2023-04-15T07:58:04;4.97;;;1.70;;
45650;SDS011;31365;48.858;8.530;2023-04-15T08:00:32;2.00;;;1.40;;
45650;SDS011;31365;48.858;8.530;2023-04-15T08:03:01;5.73;;;1.60;;
45650;SDS011;31365;48.858;8.530;2023-04-15T08:05:30;5.23;;;1.93;;
45650;SDS011;31365;48.858;8.530;2023-04-15T08:07:58;3.93;;;1.60;;
45650;SDS011;31365;48.858;8.530;2023-04-15T08:10:27;5.37;;;1.40;;
45650;SDS011;31365;48.858;8.530;2023-04-15T08:12:58;2.73;;;1.17;;
45650;SDS011;31365;48.858;8.530;2023-04-15T08:15:26;4.13;;;1.67;;
45650;SDS011;31365;48.858;8.530;2023-04-15T08:17:54;2.50;;;1.40;;
45650;SDS011;31365;48.858;8.530;2023-04-15T08:20:23;2.27;;;1.60;;
45650;SDS011;31365;48.858;8.530;2023-04-15T08:22:51;5.60;;;1.97;;
45650;SDS011;31365;48.858;8.530;2023-04-15T08:25:19;4.13;;;1.50;;
45650;SDS011;31365;48.858;8.530;2023-04-15T08:27:48;5.37;;;1.60;;
45650;SDS011;31365;48.858;8.530;2023-04-15T08:30:18;5.57;;;1.70;;
45650;SDS011;31365;48.858;8.530;2023-04-15T08:32:47;3.37;;;1.53;;
45650;SDS011;31365;48.858;8.530;2023-04-15T08:35:17;3.70;;;1.90;;
45650;SDS011;31365;48.858;8.530;2023-04-15T08:37:45;4.07;;;1.60;;
45650;SDS011;31365;48.858;8.530;2023-04-15T08:40:14;5.53;;;1.90;;
45650;SDS011;31365;48.858;8.530;2023-04-15T08:42:43;4.60;;;1.80;;
45650;SDS011;31365;48.858;8.530;2023-04-15T08:45:20;1.93;;;1.40;;
45650;SDS011;31365;48.858;8.530;2023-04-15T08:47:50;4.17;;;1.30;;
45650;SDS011;31365;48.858;8.530;2023-04-15T08:50:23;2.17;;;1.27;;
45650;SDS011;31365;48.858;8.530;2023-04-15T08:52:54;3.47;;;1.30;;
45650;SDS011;31365;48.858;8.530;2023-04-15T08:55:25;2.07;;;1.60;;
45650;SDS011;31365;48.858;8.530;2023-04-15T08:57:59;3.10;;;1.43;;
45650;SDS011;31365;48.858;8.530;2023-04-15T09:00:30;3.23;;;1.60;;
45650;SDS011;31365;48.858;8.530;2023-04-15T09:02:59;2.83;;;1.50;;
45650;SDS011;31365;48.858;8.530;2023-04-15T09:05:30;2.57;;;1.43;;
45650;SDS011;31365;48.858;8.530;2023-04-15T09:08:01;3.43;;;1.60;;
45650;SDS011;31365;48.858;8.530;2023-04-15T09:10:31;5.30;;;1.57;;
45650;SDS011;31365;48.858;8.530;2023-04-15T09:12:59;2.87;;;1.43;;
45650;SDS011;31365;48.858;8.530;2023-04-15T09:15:28;4.17;;;1.67;;
45650;SDS011;31365;48.858;8.530;2023-04-15T09:18:00;5.07;;;1.70;;
45650;SDS011;31365;48.858;8.530;2023-04-15T09:20:28;5.33;;;1.77;;
45650;SDS011;31365;48.858;8.530;2023-04-15T09:22:56;2.50;;;1.43;;
45650;SDS011;31365;48.858;8.530;2023-04-15T09:25:25;3.23;;;1.40;;
45650;SDS011;31365;48.858;8.530;2023-04-15T09:27:59;3.40;;;1.80;;
45650;SDS011;31365;48.858;8.530;2023-04-15T09:30:28;3.87;;;1.97;;
45650;SDS011;31365;48.858;8.530;2023-04-15T09:32:58;4.63;;;2.00;;
45650;SDS011;31365;48.858;8.530;2023-04-15T09:35:28;2.87;;;1.70;;
45650;SDS011;31365;48.858;8.530;2023-04-15T09:38:01;5.83;;;1.77;;
45650;SDS011;31365;48.858;8.530;2023-04-15T09:40:33;4.90;;;1.80;;
45650;SDS011;31365;48.858;8.530;2023-04-15T09:43:03;5.67;;;1.80;;
45650;SDS011;31365;48.858;8.530;2023-04-15T09:45:34;2.87;;;1.60;;
45650;SDS011;31365;48.858;8.530;2023-04-15T09:48:13;4.60;;;1.63;;
45650;SDS011;31365;48.858;8.530;2023-04-15T09:50:44;2.47;;;1.50;;
45650;SDS011;31365;48.858;8.530;2023-04-15T09:53:14;1.97;;;1.33;;
45650;SDS011;31365;48.858;8.530;2023-04-15T09:55:45;4.17;;;1.83;;
45650;SDS011;31365;48.858;8.530;2023-04-15T09:58:17;2.67;;;1.30;;
45650;SDS011;31365;48.858;8.530;2023-04-15T10:00:50;3.30;;;1.90;;
45650;SDS011;31365;48.858;8.530;2023-04-15T10:03:20;5.63;;;1.50;;
45650;SDS011;31365;48.858;8.530;2023-04-15T10:05:51;2.10;;;1.30;;
45650;SDS011;31365;48.858;8.530;2023-04-15T10:08:23;3.47;;;1.55;;
45650;SDS011;31365;48.858;8.530;2023-04-15T10:10:52;3.38;;;1.75;;
45650;SDS011;31365;48.858;8.530;2023-04-15T10:13:22;3.33;;;1.63;;
45650;SDS011;31365;48.858;8.530;2023-04-15T10:15:56;3.57;;;1.50;;
45650;SDS011;31365;48.858;8.530;2023-04-15T10:18:27;4.97;;;1.43;;
45650;SDS011;31365;48.858;8.530;2023-04-15T10:21:01;4.30;;;1.73;;
45650;SDS011;31365;48.858;8.530;2023-04-15T10:23:31;4.03;;;2.00;;
45650;SDS011;31365;48.858;8.530;2023-04-15T10:26:00;5.30;;;2.20;;
45650;SDS011;31365;48.858;8.530;2023-04-15T10:28:31;3.30;;;2.10;;
45650;SDS011;31365;48.858;8.530;2023-04-15T10:31:00;3.33;;;1.77;;
45650;SDS011;31365;48.858;8.530;2023-04-15T10:33:31;3.85;;;1.92;;
45650;SDS011;31365;48.858;8.530;2023-04-15T10:36:01;4.13;;;1.67;;
45650;SDS011;31365;48.858;8.530;2023-04-15T10:38:30;3.40;;;1.75;;
45650;SDS011;31365;48.858;8.530;2023-04-15T10:41:16;4.35;;;1.77;;
45650;SDS011;31365;48.858;8.530;2023-04-15T10:43:48;3.28;;;1.83;;
45650;SDS011;31365;48.858;8.530;2023-04-15T10:46:26;3.35;;;2.63;;
45650;SDS011;31365;48.858;8.530;2023-04-15T10:49:06;3.07;;;2.43;;
45650;SDS011;31365;48.858;8.530;2023-04-15T10:51:37;4.10;;;2.22;;
45650;SDS011;31365;48.858;8.530;2023-04-15T10:54:08;3.38;;;2.25;;
45650;SDS011;31365;48.858;8.530;2023-04-15T10:56:41;5.47;;;2.20;;
45650;SDS011;31365;48.858;8.530;2023-04-15T10:59:10;3.55;;;2.63;;
45650;SDS011;31365;48.858;8.530;2023-04-15T11:01:53;3.47;;;2.25;;
45650;SDS011;31365;48.858;8.530;2023-04-15T11:07:34;3.17;;;2.08;;
45650;SDS011;31365;48.858;8.530;2023-04-15T11:13:28;7.20;;;1.92;;
45650;SDS011;31365;48.858;8.530;2023-04-15T11:16:00;3.95;;;2.28;;
45650;SDS011;31365;48.858;8.530;2023-04-15T11:18:31;3.97;;;2.40;;
45650;SDS011;31365;48.858;8.530;2023-04-15T11:21:02;3.35;;;2.20;;
45650;SDS011;31365;48.858;8.530;2023-04-15T11:23:34;3.83;;;2.08;;
45650;SDS011;31365;48.858;8.530;2023-04-15T11:26:07;3.85;;;2.40;;
45650;SDS011;31365;48.858;8.530;2023-04-15T11:28:38;2.47;;;1.77;;
45650;SDS011;31365;48.858;8.530;2023-04-15T11:31:08;4.03;;;2.65;;
45650;SDS011;31365;48.858;8.530;2023-04-15T11:33:45;2.92;;;2.25;;
45650;SDS011;31365;48.858;8.530;2023-04-15T11:36:22;4.30;;;2.38;;
45650;SDS011;31365;48.858;8.530;2023-04-15T11:38:53;6.80;;;2.88;;
45650;SDS011;31365;48.858;8.530;2023-04-15T11:41:23;3.38;;;2.15;;
45650;SDS011;31365;48.858;8.530;2023-04-15T11:43:52;6.63;;;3.00;;
45650;SDS011;31365;48.858;8.530;2023-04-15T11:46:20;5.25;;;3.00;;
45650;SDS011;31365;48.858;8.530;2023-04-15T11:48:49;6.65;;;3.60;;
45650;SDS011;31365;48.858;8.530;2023-04-15T11:51:17;4.88;;;3.33;;
45650;SDS011;31365;48.858;8.530;2023-04-15T11:53:48;6.65;;;3.50;;
45650;SDS011;31365;48.858;8.530;2023-04-15T11:56:17;8.95;;;2.90;;
45650;SDS011;31365;48.858;8.530;2023-04-15T11:58:48;4.78;;;3.20;;
45650;SDS011;31365;48.858;8.530;2023-04-15T12:01:20;4.15;;;2.67;;
45650;SDS011;31365;48.858;8.530;2023-04-15T12:03:59;4.40;;;3.45;;
45650;SDS011;31365;48.858;8.530;2023-04-15T12:06:34;4.40;;;2.75;;
45650;SDS011;31365;48.858;8.530;2023-04-15T12:09:07;5.05;;;3.33;;
45650;SDS011;31365;48.858;8.530;2023-04-15T12:11:41;8.07;;;3.97;;
45650;SDS011;31365;48.858;8.530;2023-04-15T12:14:20;4.80;;;3.17;;
45650;SDS011;31365;48.858;8.530;2023-04-15T12:16:52;7.10;;;3.35;;
45650;SDS011;31365;48.858;8.530;2023-04-15T12:19:25;3.45;;;2.75;;
45650;SDS011;31365;48.858;8.530;2023-04-15T12:21:56;3.65;;;2.35;;
45650;SDS011;31365;48.858;8.530;2023-04-15T12:24:28;3.97;;;2.20;;
45650;SDS011;31365;48.858;8.530;2023-04-15T12:27:02;5.78;;;2.88;;
45650;SDS011;31365;48.858;8.530;2023-04-15T12:29:33;6.35;;;2.97;;
45650;SDS011;31365;48.858;8.530;2023-04-15T12:32:05;8.93;;;6.35;;
45650;SDS011;31365;48.858;8.530;2023-04-15T12:34:38;7.57;;;5.45;;
45650;SDS011;31365;48.858;8.530;2023-04-15T12:37:08;8.18;;;4.38;;
45650;SDS011;31365;48.858;8.530;2023-04-15T12:39:40;7.72;;;3.08;;
45650;SDS011;31365;48.858;8.530;2023-04-15T12:42:11;3.55;;;2.90;;
45650;SDS011;31365;48.858;8.530;2023-04-15T12:44:39;4.90;;;2.58;;
45650;SDS011;31365;48.858;8.530;2023-04-15T12:47:09;4.50;;;2.80;;
45650;SDS011;31365;48.858;8.530;2023-04-15T12:49:40;6.68;;;3.00;;
45650;SDS011;31365;48.858;8.530;2023-04-15T12:52:08;3.85;;;2.42;;
45650;SDS011;31365;48.858;8.530;2023-04-15T12:54:36;5.03;;;3.13;;
45650;SDS011;31365;48.858;8.530;2023-04-15T12:57:06;4.05;;;2.58;;
45650;SDS011;31365;48.858;8.530;2023-04-15T12:59:34;2.47;;;2.10;;
45650;SDS011;31365;48.858;8.530;2023-04-15T13:02:03;4.05;;;2.47;;
45650;SDS011;31365;48.858;8.530;2023-04-15T13:04:31;2.80;;;2.55;;
45650;SDS011;31365;48.858;8.530;2023-04-15T13:07:01;4.53;;;2.95;;
45650;SDS011;31365;48.858;8.530;2023-04-15T13:09:30;4.47;;;3.28;;
45650;SDS011;31365;48.858;8.530;2023-04-15T13:11:58;5.07;;;2.78;;
45650;SDS011;31365;48.858;8.530;2023-04-15T13:14:27;4.05;;;2.53;;
45650;SDS011;31365;48.858;8.530;2023-04-15T13:16:55;3.47;;;2.80;;
45650;SDS011;31365;48.858;8.530;2023-04-15T13:21:52;3.60;;;3.10;;
45650;SDS011;31365;48.858;8.530;2023-04-15T13:24:23;3.95;;;2.65;;
45650;SDS011;31365;48.858;8.530;2023-04-15T13:26:52;4.35;;;2.58;;
45650;SDS011;31365;48.858;8.530;2023-04-15T13:29:21;2.33;;;1.98;;
45650;SDS011;31365;48.858;8.530;2023-04-15T13:31:49;3.05;;;2.35;;
45650;SDS011;31365;48.858;8.530;2023-04-15T13:34:17;4.10;;;2.08;;
45650;SDS011;31365;48.858;8.530;2023-04-15T13:36:46;2.75;;;1.92;;
45650;SDS011;31365;48.858;8.530;2023-04-15T13:39:14;3.50;;;1.95;;
45650;SDS011;31365;48.858;8.530;2023-04-15T13:41:44;3.50;;;1.85;;
45650;SDS011;31365;48.858;8.530;2023-04-15T13:44:13;3.28;;;1.88;;
45650;SDS011;31365;48.858;8.530;2023-04-15T13:46:43;2.70;;;1.90;;
45650;SDS011;31365;48.858;8.530;2023-04-15T13:49:11;3.53;;;1.80;;
45650;SDS011;31365;48.858;8.530;2023-04-15T13:51:39;2.30;;;1.77;;
45650;SDS011;31365;48.858;8.530;2023-04-15T13:54:07;3.13;;;1.60;;
45650;SDS011;31365;48.858;8.530;2023-04-15T13:56:35;3.90;;;2.05;;
45650;SDS011;31365;48.858;8.530;2023-04-15T13:59:05;2.45;;;1.77;;
45650;SDS011;31365;48.858;8.530;2023-04-15T14:01:34;3.08;;;1.98;;
45650;SDS011;31365;48.858;8.530;2023-04-15T14:04:03;3.53;;;2.33;;
45650;SDS011;31365;48.858;8.530;2023-04-15T14:06:32;3.95;;;2.80;;
45650;SDS011;31365;48.858;8.530;2023-04-15T14:09:00;2.72;;;2.17;;
45650;SDS011;31365;48.858;8.530;2023-04-15T14:11:29;2.88;;;2.58;;
45650;SDS011;31365;48.858;8.530;2023-04-15T14:13:58;2.58;;;1.95;;
45650;SDS011;31365;48.858;8.530;2023-04-15T14:16:28;4.25;;;2.40;;
45650;SDS011;31365;48.858;8.530;2023-04-15T14:18:57;2.70;;;2.10;;
45650;SDS011;31365;48.858;8.530;2023-04-15T14:21:25;3.03;;;2.20;;
45650;SDS011;31365;48.858;8.530;2023-04-15T14:23:55;3.87;;;2.10;;
45650;SDS011;31365;48.858;8.530;2023-04-15T14:26:23;4.17;;;2.40;;
45650;SDS011;31365;48.858;8.530;2023-04-15T14:28:52;4.70;;;3.50;;
45650;SDS011;31365;48.858;8.530;2023-04-15T14:31:21;3.20;;;2.23;;
45650;SDS011;31365;48.858;8.530;2023-04-15T14:33:50;4.37;;;2.63;;
45650;SDS011;31365;48.858;8.530;2023-04-15T14:36:18;3.63;;;2.60;;
45650;SDS011;31365;48.858;8.530;2023-04-15T14:38:47;3.50;;;2.50;;
45650;SDS011;31365;48.858;8.530;2023-04-15T14:41:16;4.47;;;2.63;;
45650;SDS011;31365;48.858;8.530;2023-04-15T14:43:44;2.97;;;2.33;;
45650;SDS011;31365;48.858;8.530;2023-04-15T14:46:12;5.03;;;2.93;;
45650;SDS011;31365;48.858;8.530;2023-04-15T14:48:41;7.23;;;2.83;;
45650;SDS011;31365;48.858;8.530;2023-04-15T14:51:11;6.63;;;3.07;;
45650;SDS011;31365;48.858;8.530;2023-04-15T14:53:39;3.50;;;2.93;;
45650;SDS011;31365;48.858;8.530;2023-04-15T14:56:08;3.77;;;2.50;;
45650;SDS011;31365;48.858;8.530;2023-04-15T14:58:36;5.20;;;2.97;;
45650;SDS011;31365;48.858;8.530;2023-04-15T15:01:04;4.67;;;2.40;;
45650;SDS011;31365;48.858;8.530;2023-04-15T15:03:33;3.63;;;2.70;;
45650;SDS011;31365;48.858;8.530;2023-04-15T15:06:03;3.30;;;2.37;;
45650;SDS011;31365;48.858;8.530;2023-04-15T15:08:32;4.53;;;2.50;;
45650;SDS011;31365;48.858;8.530;2023-04-15T15:11:02;3.70;;;2.40;;